Time;durP1;ratioP1;P1;durP2;ratioP2;P2;SDS_P1;SDS_P2;PMS_P1;PMS_P2;Temp;Humidity;BMP_temperature;BMP_pressure;BME280_temperature;BME280_humidity;BME280_pressure;Samples;Min_cycle;Max_cycle;Signal;HPM_P1;HPM_P2
2022/03/16 00:00:13;;;;;;;29.55;20.58;;;5.20;89.60;;;;;;5009608;28;20040;-47
2022/03/16 00:02:40;;;;;;;29.85;21.48;;;5.20;89.80;;;;;;5010746;28;20034;-46
2022/03/16 00:05:06;;;;;;;40.60;25.52;;;5.20;89.90;;;;;;5010213;28;20033;-46
2022/03/16 00:07:43;;;;;;;44.45;28.90;;;5.30;90.40;;;;;;4993783;28;20042;-47
2022/03/16 00:10:13;;;;;;;46.83;29.55;;;5.40;90.60;;;;;;5010030;28;20132;-47
2022/03/16 00:12:50;;;;;;;49.55;31.90;;;5.50;90.90;;;;;;5009106;28;20034;-46
2022/03/16 00:15:17;;;;;;;45.45;29.80;;;5.70;91.20;;;;;;5010104;28;20048;-46
2022/03/16 00:17:44;;;;;;;55.10;31.48;;;5.80;91.30;;;;;;5010280;28;20366;-46
2022/03/16 00:20:11;;;;;;;46.15;30.63;;;5.90;91.40;;;;;;5008927;28;20038;-47
2022/03/16 00:22:36;;;;;;;49.15;32.15;;;6.00;91.40;;;;;;5008860;28;20402;-49
2022/03/16 00:25:05;;;;;;;52.63;33.88;;;6.10;91.50;;;;;;5008905;28;20026;-47
2022/03/16 00:27:32;;;;;;;;;;;6.20;91.50;;;;;;5011081;28;20034;-47
2022/03/16 00:29:58;;;;;;;46.03;29.23;;;6.20;91.50;;;;;;5010107;28;19916;-48
2022/03/16 00:32:26;;;;;;;54.03;31.27;;;6.30;91.50;;;;;;5010684;28;20100;-48
2022/03/16 00:34:52;;;;;;;42.63;28.58;;;6.30;91.40;;;;;;5010634;28;20026;-46
2022/03/16 00:37:18;;;;;;;48.53;31.25;;;6.30;91.40;;;;;;5009524;28;20344;-46
2022/03/16 00:39:45;;;;;;;44.75;30.00;;;6.30;91.30;;;;;;5010215;28;20045;-46
2022/03/16 00:42:12;;;;;;;45.05;30.65;;;6.30;91.20;;;;;;5009932;28;20105;-47
2022/03/16 00:44:40;;;;;;;40.70;27.27;;;6.20;91.00;;;;;;5010670;28;20038;-46
2022/03/16 00:47:06;;;;;;;43.45;28.38;;;6.10;90.70;;;;;;4992919;28;20080;-47
2022/03/16 00:49:33;;;;;;;39.92;26.10;;;6.00;90.70;;;;;;5009386;28;20030;-46
2022/03/16 00:52:00;;;;;;;40.78;26.88;;;5.90;90.60;;;;;;4992805;28;20033;-47
2022/03/16 00:54:28;;;;;;;41.55;26.60;;;5.80;90.70;;;;;;5008859;28;20026;-47
2022/03/16 00:56:55;;;;;;;34.75;23.73;;;5.80;90.60;;;;;;5008713;28;20513;-47
2022/03/16 00:59:21;;;;;;;37.95;25.23;;;5.70;90.60;;;;;;5009849;28;20033;-47
2022/03/16 01:01:48;;;;;;;34.03;25.30;;;5.50;90.50;;;;;;5010052;28;20325;-48
2022/03/16 01:04:14;;;;;;;32.72;23.63;;;5.50;90.50;;;;;;5009243;28;20041;-47
2022/03/16 01:06:42;;;;;;;50.00;26.50;;;5.40;90.50;;;;;;5009767;28;20359;-47
2022/03/16 01:09:10;;;;;;;39.63;27.73;;;5.30;90.40;;;;;;5009293;28;20029;-47
2022/03/16 01:11:37;;;;;;;44.80;28.77;;;5.20;90.40;;;;;;5009332;28;20070;-47
2022/03/16 01:14:03;;;;;;;44.35;29.02;;;5.20;90.50;;;;;;5009567;28;20034;-49
2022/03/16 01:16:32;;;;;;;45.72;29.65;;;5.20;90.60;;;;;;5008701;28;20454;-48
2022/03/16 01:18:58;;;;;;;43.55;28.08;;;5.10;90.70;;;;;;5009434;28;20072;-49
2022/03/16 01:21:24;;;;;;;45.13;27.67;;;5.10;90.60;;;;;;5008875;28;20061;-47
2022/03/16 01:23:51;;;;;;;42.55;29.23;;;5.10;90.70;;;;;;5009838;28;20112;-47
2022/03/16 01:26:19;;;;;;;44.97;29.55;;;5.00;90.70;;;;;;5009599;28;20087;-48
2022/03/16 01:28:45;;;;;;;39.08;26.52;;;5.00;90.60;;;;;;5009495;28;20063;-48
2022/03/16 01:31:13;;;;;;;45.33;29.92;;;5.00;90.70;;;;;;5009942;28;20032;-48
2022/03/16 01:33:42;;;;;;;47.83;29.35;;;5.00;90.70;;;;;;5009506;28;20069;-47
2022/03/16 01:36:09;;;;;;;46.42;28.92;;;5.00;90.70;;;;;;5013289;28;20072;-50
2022/03/16 01:38:37;;;;;;;49.08;29.30;;;4.90;90.60;;;;;;5012392;28;20371;-48
2022/03/16 01:41:04;;;;;;;52.78;30.70;;;4.90;90.50;;;;;;5013366;28;20025;-48
2022/03/16 01:43:30;;;;;;;39.20;24.27;;;4.90;90.50;;;;;;5012610;28;20041;-47
2022/03/16 01:45:57;;;;;;;45.78;28.73;;;4.80;90.40;;;;;;5012043;28;20118;-51
2022/03/16 01:48:25;;;;;;;52.53;31.98;;;4.80;90.60;;;;;;5013346;28;20021;-48
2022/03/16 01:50:54;;;;;;;53.25;32.95;;;4.80;90.80;;;;;;5013115;28;20059;-51
2022/03/16 01:53:26;;;;;;;48.10;30.42;;;4.80;91.00;;;;;;5012306;28;20030;-49
2022/03/16 01:55:53;;;;;;;43.95;28.50;;;4.80;91.00;;;;;;5012386;28;20038;-52
2022/03/16 01:58:20;;;;;;;43.15;28.75;;;4.70;90.90;;;;;;5012080;28;20353;-50
2022/03/16 02:00:47;;;;;;;44.05;28.58;;;4.70;90.80;;;;;;5011987;28;20470;-51
2022/03/16 02:03:14;;;;;;;44.05;29.52;;;4.70;90.80;;;;;;5011839;28;20033;-48
2022/03/16 02:05:40;;;;;;;40.85;26.85;;;4.60;90.60;;;;;;4995640;28;20096;-47
2022/03/16 02:08:14;;;;;;;37.88;26.40;;;4.60;90.50;;;;;;5012967;28;20037;-49
2022/03/16 02:10:42;;;;;;;42.63;28.45;;;4.50;90.40;;;;;;5012912;28;20195;-49
2022/03/16 02:13:11;;;;;;;46.50;28.60;;;4.50;90.50;;;;;;5011630;28;20140;-50
2022/03/16 02:15:49;;;;;;;47.40;31.00;;;4.40;90.50;;;;;;5012711;28;20315;-48
2022/03/16 02:18:14;;;;;;;48.95;28.73;;;4.40;90.70;;;;;;5012631;28;20098;-51
2022/03/16 02:20:40;;;;;;;43.10;27.75;;;4.50;90.80;;;;;;4995648;28;20177;-50
2022/03/16 02:23:10;;;;;;;44.72;28.30;;;4.40;90.60;;;;;;5011900;28;20026;-48
2022/03/16 02:25:53;;;;;;;42.25;29.98;;;4.40;90.60;;;;;;5012840;28;20423;-49
2022/03/16 02:28:21;;;;;;;48.10;30.13;;;4.40;90.80;;;;;;5011041;28;20073;-50
2022/03/16 02:30:49;;;;;;;48.70;30.40;;;4.40;90.70;;;;;;5011295;28;20037;-50
2022/03/16 02:33:15;;;;;;;50.20;30.25;;;4.30;90.60;;;;;;5011881;28;20022;-48
2022/03/16 02:35:43;;;;;;;50.00;30.73;;;4.40;90.70;;;;;;4995069;28;20030;-48
2022/03/16 02:38:14;;;;;;;44.95;30.65;;;4.30;90.70;;;;;;5012573;28;20033;-50
2022/03/16 02:40:41;;;;;;;50.33;30.55;;;4.30;90.80;;;;;;5012753;28;20040;-48
2022/03/16 02:43:07;;;;;;;53.42;32.35;;;4.30;90.80;;;;;;5011024;28;20026;-48
2022/03/16 02:45:35;;;;;;;53.90;32.63;;;4.30;90.80;;;;;;5011418;28;20026;-52
2022/03/16 02:48:02;;;;;;;55.90;34.20;;;4.30;90.90;;;;;;5011891;28;20022;-50
2022/03/16 02:50:31;;;;;;;56.05;33.03;;;4.40;91.00;;;;;;5012485;28;20014;-49
2022/03/16 02:53:01;;;;;;;58.17;34.45;;;4.40;91.00;;;;;;5011367;28;20067;-48
2022/03/16 02:55:28;;;;;;;59.15;32.05;;;4.40;91.10;;;;;;5011491;28;20029;-50
2022/03/16 02:57:54;;;;;;;58.42;34.53;;;4.40;91.20;;;;;;5011824;28;20115;-48
2022/03/16 03:00:21;;;;;;;53.70;33.97;;;4.50;91.40;;;;;;5012033;28;20467;-48
2022/03/16 03:02:48;;;;;;;57.60;34.90;;;4.60;91.60;;;;;;5011836;28;20372;-51
2022/03/16 03:05:15;;;;;;;51.72;32.78;;;4.70;91.50;;;;;;5012140;28;20048;-49
2022/03/16 03:07:43;;;;;;;50.47;30.75;;;4.60;91.40;;;;;;5011561;28;20065;-49
2022/03/16 03:10:09;;;;;;;54.65;32.20;;;4.50;91.30;;;;;;5011838;28;20116;-49
2022/03/16 03:12:40;;;;;;;53.25;33.10;;;4.60;91.40;;;;;;5011417;28;20026;-49
2022/03/16 03:15:10;;;;;;;52.78;32.15;;;4.60;91.30;;;;;;5011611;28;20045;-48
2022/03/16 03:17:37;;;;;;;50.65;31.35;;;4.50;91.20;;;;;;5011745;28;20046;-48
2022/03/16 03:20:04;;;;;;;47.30;30.65;;;4.50;91.10;;;;;;5011317;28;20059;-49
2022/03/16 03:22:31;;;;;;;48.35;30.08;;;4.50;91.10;;;;;;5011347;28;20025;-49
2022/03/16 03:24:58;;;;;;;54.10;33.08;;;4.40;91.10;;;;;;5011206;28;20041;-51
2022/03/16 03:27:35;;;;;;;43.13;29.00;;;4.40;91.10;;;;;;5010546;28;20033;-48
2022/03/16 03:30:15;;;;;;;47.10;27.83;;;4.40;91.00;;;;;;5010773;28;20080;-48
2022/03/16 03:32:42;;;;;;;47.80;27.95;;;4.30;90.90;;;;;;5011415;28;20084;-51
2022/03/16 03:35:10;;;;;;;55.28;27.77;;;4.20;90.90;;;;;;5011516;28;20365;-49
2022/03/16 03:37:36;;;;;;;41.78;26.75;;;4.20;90.80;;;;;;5011713;28;20068;-49
2022/03/16 03:40:04;;;;;;;44.88;28.10;;;4.10;90.80;;;;;;5011281;28;20026;-50
2022/03/16 03:42:30;;;;;;;47.58;26.80;;;4.10;90.70;;;;;;5011549;28;20070;-49
2022/03/16 03:44:57;;;;;;;39.95;26.00;;;4.10;90.70;;;;;;5010916;28;20027;-50
2022/03/16 03:47:25;;;;;;;45.28;27.88;;;4.00;90.70;;;;;;5010943;28;20043;-51
2022/03/16 03:49:57;;;;;;;41.75;26.65;;;4.00;90.60;;;;;;5010319;28;20026;-50
2022/03/16 03:52:23;;;;;;;48.00;28.58;;;4.00;90.70;;;;;;5011330;28;20041;-52
2022/03/16 03:54:50;;;;;;;45.30;28.00;;;3.90;90.60;;;;;;5010159;28;20026;-50
2022/03/16 03:57:17;;;;;;;43.67;27.35;;;3.90;90.60;;;;;;5010951;28;20045;-49
2022/03/16 03:59:45;;;;;;;44.08;28.08;;;3.90;90.60;;;;;;5011107;28;20030;-50
2022/03/16 04:02:11;;;;;;;43.83;28.38;;;3.90;90.60;;;;;;5010877;28;20042;-52
2022/03/16 04:04:38;;;;;;;43.60;27.85;;;3.90;90.60;;;;;;5010836;28;20030;-50
2022/03/16 04:07:05;;;;;;;48.45;28.95;;;3.90;90.60;;;;;;5010871;28;20030;-49
2022/03/16 04:09:32;;;;;;;47.50;28.83;;;3.90;90.50;;;;;;5011135;28;20022;-49
2022/03/16 04:11:59;;;;;;;41.97;26.38;;;3.90;90.40;;;;;;4993527;28;20093;-49
2022/03/16 04:14:27;;;;;;;47.25;29.15;;;3.80;90.40;;;;;;5010121;28;20026;-48
2022/03/16 04:16:54;;;;;;;45.03;28.85;;;3.70;90.20;;;;;;5010455;28;20472;-48
2022/03/16 04:19:21;;;;;;;47.22;28.77;;;3.80;90.30;;;;;;5009651;28;20113;-48
2022/03/16 04:21:47;;;;;;;48.83;29.67;;;3.70;90.40;;;;;;5009967;28;20080;-50
2022/03/16 04:24:13;;;;;;;44.15;28.80;;;3.70;90.40;;;;;;5010708;28;20107;-50
2022/03/16 04:26:43;;;;;;;48.80;30.63;;;3.70;90.40;;;;;;5009815;28;20036;-49
2022/03/16 04:29:11;;;;;;;48.60;30.83;;;3.80;90.50;;;;;;5009304;28;20486;-52
2022/03/16 04:31:38;;;;;;;52.25;29.88;;;3.80;90.60;;;;;;5010601;28;20038;-50
2022/03/16 04:34:05;;;;;;;50.40;31.15;;;3.80;90.60;;;;;;5008425;28;20017;-49
2022/03/16 04:36:34;;;;;;;49.92;32.00;;;3.80;90.50;;;;;;5010502;28;20123;-49
2022/03/16 04:38:59;;;;;;;50.80;31.90;;;3.80;90.50;;;;;;5010430;28;20038;-50
2022/03/16 04:41:27;;;;;;;49.70;30.00;;;3.70;90.50;;;;;;5010127;28;20033;-49
2022/03/16 04:43:55;;;;;;;52.47;31.10;;;3.70;90.40;;;;;;5009577;28;20448;-52
2022/03/16 04:46:24;;;;;;;44.97;29.95;;;3.70;90.30;;;;;;5010146;28;20052;-50
2022/03/16 04:48:54;;;;;;;49.70;31.48;;;3.60;90.40;;;;;;5010083;28;20048;-51
2022/03/16 04:51:19;;;;;;;44.08;29.80;;;3.70;90.40;;;;;;5009390;28;20120;-54
2022/03/16 04:53:48;;;;;;;49.15;30.55;;;3.70;90.40;;;;;;5009740;28;20148;-50
2022/03/16 04:56:16;;;;;;;48.65;30.23;;;3.60;90.40;;;;;;5008989;28;20049;-50
2022/03/16 04:58:43;;;;;;;47.13;29.42;;;3.60;90.50;;;;;;5008934;28;20374;-50
2022/03/16 05:01:09;;;;;;;49.08;29.55;;;3.60;90.50;;;;;;5010038;28;20040;-50
2022/03/16 05:03:36;;;;;;;48.35;30.92;;;3.60;90.50;;;;;;5009310;28;20062;-49
2022/03/16 05:06:02;;;;;;;48.67;30.63;;;3.60;90.50;;;;;;5009839;28;20030;-54
2022/03/16 05:08:29;;;;;;;53.95;32.45;;;3.60;90.50;;;;;;5008785;28;20502;-55
2022/03/16 05:10:54;;;;;;;56.20;33.88;;;3.70;90.70;;;;;;5009338;28;20049;-55
2022/03/16 05:13:22;;;;;;;55.03;32.60;;;3.70;90.90;;;;;;5009868;28;20072;-52
2022/03/16 05:15:50;;;;;;;63.35;36.47;;;3.70;90.90;;;;;;5009832;28;20030;-49
2022/03/16 05:18:17;;;;;;;65.00;39.47;;;3.80;91.00;;;;;;5008694;28;20045;-49
2022/03/16 05:20:44;;;;;;;58.22;36.05;;;3.90;91.30;;;;;;5009819;28;20101;-49
2022/03/16 05:23:11;;;;;;;68.10;41.05;;;3.90;91.40;;;;;;5009949;28;20040;-50
2022/03/16 05:25:36;;;;;;;63.60;36.00;;;4.10;91.70;;;;;;5008933;28;20029;-50
2022/03/16 05:28:06;;;;;;;58.67;34.92;;;4.10;91.70;;;;;;4992776;28;20358;-52
2022/03/16 05:30:32;;;;;;;59.25;36.17;;;4.20;91.60;;;;;;5008659;28;20037;-49
2022/03/16 05:33:02;;;;;;;60.88;36.40;;;4.20;91.50;;;;;;5009837;28;20088;-51
2022/03/16 05:35:29;;;;;;;51.15;33.38;;;4.20;91.40;;;;;;5008938;28;20423;-52
2022/03/16 05:37:55;;;;;;;52.83;32.83;;;4.20;91.40;;;;;;5010295;28;20037;-53
2022/03/16 05:40:23;;;;;;;57.90;33.50;;;4.20;91.40;;;;;;4992181;28;20033;-52
2022/03/16 05:42:51;;;;;;;52.97;30.77;;;4.20;91.30;;;;;;5009671;28;20094;-52
2022/03/16 05:45:21;;;;;;;55.47;34.33;;;4.20;91.30;;;;;;5007899;28;20095;-49
2022/03/16 05:47:50;;;;;;;47.90;32.80;;;4.20;91.20;;;;;;5009321;28;20398;-49
2022/03/16 05:50:18;;;;;;;58.95;34.28;;;4.20;91.20;;;;;;5008735;28;20054;-52
2022/03/16 05:52:46;;;;;;;59.95;36.65;;;4.30;91.30;;;;;;5009323;28;20114;-50
2022/03/16 05:55:14;;;;;;;55.35;33.13;;;4.30;91.40;;;;;;5009221;28;20109;-49
2022/03/16 05:57:48;;;;;;;54.95;34.63;;;4.40;91.50;;;;;;5009261;28;20078;-53
2022/03/16 06:00:20;;;;;;;51.67;32.60;;;4.40;91.40;;;;;;5009620;28;20040;-51
2022/03/16 06:02:49;;;;;;;52.10;31.33;;;4.50;91.40;;;;;;4992321;28;20046;-51
2022/03/16 06:05:20;;;;;;;56.33;33.05;;;4.50;91.40;;;;;;5009650;28;20113;-51
2022/03/16 06:07:46;;;;;;;50.55;33.58;;;4.50;91.30;;;;;;5008301;28;20034;-51
2022/03/16 06:10:17;;;;;;;48.13;32.05;;;4.50;91.20;;;;;;5007902;28;20585;-50
2022/03/16 06:13:11;;;;;;;51.78;33.88;;;4.50;91.30;;;;;;5009556;28;20045;-48
2022/03/16 06:15:43;;;;;;;57.58;34.80;;;4.50;91.30;;;;;;4994577;28;20053;-49
2022/03/16 06:18:13;;;;;;;53.15;34.13;;;4.60;91.40;;;;;;4992103;28;20041;-52
2022/03/16 06:20:40;;;;;;;58.72;34.10;;;4.60;91.40;;;;;;5009460;28;20096;-52
2022/03/16 06:23:08;;;;;;;57.42;37.08;;;4.70;91.50;;;;;;5012053;28;20034;-49
2022/03/16 06:25:35;;;;;;;60.50;35.55;;;4.70;91.60;;;;;;5012645;28;20022;-51
2022/03/16 06:28:01;;;;;;;58.55;34.63;;;4.80;91.80;;;;;;5011521;28;20088;-50
2022/03/16 06:30:28;;;;;;;58.08;33.78;;;4.90;91.80;;;;;;4995833;28;20034;-48
2022/03/16 06:32:55;;;;;;;52.10;33.97;;;5.00;91.80;;;;;;4995404;28;20044;-48
2022/03/16 06:35:23;;;;;;;58.97;34.67;;;5.00;91.80;;;;;;5012442;28;20046;-50
2022/03/16 06:37:54;;;;;;;61.17;35.03;;;5.10;91.80;;;;;;5011380;28;20116;-49
2022/03/16 06:40:21;;;;;;;70.65;36.53;;;5.20;91.90;;;;;;5012491;28;20030;-50
2022/03/16 06:42:56;;;;;;;60.63;36.30;;;5.40;92.10;;;;;;5011966;28;20040;-49
2022/03/16 06:45:27;;;;;;;58.88;36.45;;;5.50;92.20;;;;;;5010489;28;20413;-48
2022/03/16 06:47:59;;;;;;;68.10;38.97;;;5.50;92.10;;;;;;4995346;28;20029;-49
2022/03/16 06:50:26;;;;;;;59.45;36.13;;;5.60;92.10;;;;;;5010891;28;20398;-48
2022/03/16 06:53:00;;;;;;;59.85;38.42;;;5.70;92.00;;;;;;4978578;28;20030;-48
2022/03/16 06:55:26;;;;;;;63.90;37.50;;;5.60;92.00;;;;;;5006482;28;20030;-48
2022/03/16 06:57:52;;;;;;;49.80;36.40;;;5.70;91.90;;;;;;5012051;28;20061;-49
2022/03/16 07:00:19;;;;;;;63.85;36.03;;;5.70;91.80;;;;;;5011856;28;20066;-48
2022/03/16 07:03:00;;;;;;;53.58;33.72;;;5.70;91.70;;;;;;5012449;28;20026;-50
2022/03/16 07:05:32;;;;;;;50.17;34.50;;;5.70;91.70;;;;;;5012391;28;20402;-47
2022/03/16 07:08:02;;;;;;;52.47;34.85;;;5.70;91.70;;;;;;5012025;28;20336;-47
2022/03/16 07:10:30;;;;;;;50.53;33.08;;;5.80;91.70;;;;;;5010168;28;20111;-47
2022/03/16 07:12:58;;;;;;;45.88;31.83;;;5.80;91.60;;;;;;5011103;28;20022;-47
2022/03/16 07:15:28;;;;;;;50.92;34.58;;;5.80;91.60;;;;;;5010357;28;20469;-47
2022/03/16 07:17:54;;;;;;;;;;;5.90;91.50;;;;;;5011162;28;20079;-47
2022/03/16 07:20:31;;;;;;;46.92;32.10;;;6.00;91.60;;;;;;5011683;28;19909;-47
2022/03/16 07:23:21;;;;;;;47.13;31.70;;;6.00;91.50;;;;;;5011674;28;20068;-47
2022/03/16 07:25:48;;;;;;;44.45;32.03;;;6.00;91.40;;;;;;5010379;28;20026;-47
2022/03/16 07:28:17;;;;;;;50.92;32.05;;;6.10;91.40;;;;;;5010602;28;20076;-49
2022/03/16 07:30:43;;;;;;;41.47;30.08;;;6.20;91.40;;;;;;5010313;28;20041;-49
2022/03/16 07:33:13;;;;;;;43.45;31.48;;;6.20;91.30;;;;;;5010336;28;20026;-49
2022/03/16 07:35:40;;;;;;;45.97;30.95;;;6.30;91.30;;;;;;5011532;28;20515;-47
2022/03/16 07:38:07;;;;;;;41.70;30.08;;;6.30;91.20;;;;;;4994203;28;20356;-47
2022/03/16 07:40:35;;;;;;;43.88;30.08;;;6.30;91.20;;;;;;5011359;28;20044;-47
2022/03/16 07:43:04;;;;;;;43.70;28.42;;;6.40;91.20;;;;;;5010393;28;20025;-48
2022/03/16 07:45:31;;;;;;;37.78;26.55;;;6.40;91.20;;;;;;5010065;28;20038;-46
2022/03/16 07:48:00;;;;;;;42.47;28.58;;;6.60;91.10;;;;;;5011095;28;20116;-46
2022/03/16 07:50:26;;;;;;;43.30;26.77;;;6.60;90.80;;;;;;5010018;28;20025;-46
2022/03/16 07:52:55;;;;;;;42.08;28.65;;;6.60;90.80;;;;;;5010225;28;20041;-46
2022/03/16 07:55:25;;;;;;;36.67;26.98;;;6.60;90.70;;;;;;5009772;28;20092;-46
2022/03/16 07:57:54;;;;;;;40.90;27.23;;;6.60;90.70;;;;;;4993631;28;20034;-46
2022/03/16 08:00:21;;;;;;;41.80;27.73;;;6.60;90.80;;;;;;5009543;28;20477;-46
2022/03/16 08:02:48;;;;;;;39.67;28.58;;;6.70;90.90;;;;;;5009624;28;20343;-46
2022/03/16 08:05:16;;;;;;;40.35;28.70;;;6.70;90.80;;;;;;5009403;28;20076;-45
2022/03/16 08:07:44;;;;;;;37.97;26.80;;;6.80;90.90;;;;;;5010972;28;20071;-45
2022/03/16 08:10:10;;;;;;;41.08;26.58;;;6.90;90.90;;;;;;5010715;28;20364;-46
2022/03/16 08:12:37;;;;;;;36.85;24.92;;;7.00;90.90;;;;;;5010273;28;20025;-50
2022/03/16 08:15:06;;;;;;;35.35;24.40;;;7.10;90.70;;;;;;5010102;28;20465;-46
2022/03/16 08:17:35;;;;;;;34.50;22.80;;;7.20;90.40;;;;;;5010686;28;20366;-45
2022/03/16 08:20:04;;;;;;;28.48;20.88;;;7.20;89.90;;;;;;5009953;28;20072;-45
2022/03/16 08:22:34;;;;;;;31.15;21.60;;;7.20;89.80;;;;;;5009667;28;20049;-45
2022/03/16 08:25:04;;;;;;;32.35;23.13;;;7.30;89.70;;;;;;4966419;28;20030;-45
2022/03/16 08:27:35;;;;;;;33.38;22.80;;;7.30;89.40;;;;;;5009997;28;20073;-43
2022/03/16 08:30:01;;;;;;;32.78;21.95;;;7.40;89.20;;;;;;5009749;28;20026;-45
2022/03/16 08:32:29;;;;;;;27.63;21.33;;;7.40;89.10;;;;;;5009870;28;20025;-44
2022/03/16 08:34:56;;;;;;;29.63;21.38;;;7.50;89.10;;;;;;5010297;28;20026;-43
2022/03/16 08:37:26;;;;;;;26.33;20.15;;;7.70;89.10;;;;;;5009856;28;20038;-44
2022/03/16 08:39:53;;;;;;;34.00;23.25;;;7.90;89.30;;;;;;4992732;28;20060;-44
2022/03/16 08:42:21;;;;;;;32.83;20.85;;;7.90;88.90;;;;;;5010009;28;20451;-46
2022/03/16 08:44:49;;;;;;;32.47;21.42;;;8.00;88.60;;;;;;5008980;28;20040;-44
2022/03/16 08:47:16;;;;;;;28.40;19.92;;;8.10;88.20;;;;;;5009776;28;20033;-43
2022/03/16 08:49:47;;;;;;;29.85;19.38;;;8.10;88.00;;;;;;5009746;28;20591;-43
2022/03/16 08:52:14;;;;;;;25.25;18.38;;;8.20;87.70;;;;;;4993387;28;20041;-43
2022/03/16 08:54:42;;;;;;;26.90;19.15;;;8.20;87.40;;;;;;5009025;28;20134;-42
2022/03/16 08:57:09;;;;;;;28.70;20.30;;;8.30;87.20;;;;;;5010034;28;20402;-42
2022/03/16 08:59:35;;;;;;;26.58;18.33;;;8.40;86.90;;;;;;4992527;28;20383;-41
2022/03/16 09:02:04;;;;;;;28.98;19.83;;;8.40;86.70;;;;;;5010350;28;20096;-41
2022/03/16 09:04:32;;;;;;;25.10;20.40;;;8.50;87.00;;;;;;5009901;28;20038;-42
2022/03/16 09:06:58;;;;;;;25.63;18.35;;;8.50;86.70;;;;;;5009697;28;20464;-41
2022/03/16 09:09:26;;;;;;;30.85;19.90;;;8.60;86.60;;;;;;5009522;28;20033;-42
2022/03/16 09:11:54;;;;;;;24.77;18.80;;;8.70;86.20;;;;;;4991929;28;20050;-41
2022/03/16 09:14:20;;;;;;;26.38;19.30;;;8.70;86.20;;;;;;5009809;28;20034;-41
2022/03/16 09:16:47;;;;;;;28.50;19.45;;;8.80;86.00;;;;;;5009030;28;20037;-41
2022/03/16 09:19:16;;;;;;;27.20;18.92;;;8.90;86.10;;;;;;5009434;28;20033;-42
2022/03/16 09:21:44;;;;;;;25.42;19.73;;;9.00;86.00;;;;;;5010021;28;20030;-41
2022/03/16 09:24:11;;;;;;;29.35;18.08;;;9.00;85.80;;;;;;5009844;28;20144;-42
2022/03/16 09:26:37;;;;;;;27.00;18.75;;;9.10;85.10;;;;;;5009106;28;20088;-42
2022/03/16 09:29:08;;;;;;;23.88;18.15;;;9.20;84.80;;;;;;5009724;28;20030;-42
2022/03/16 09:31:39;;;;;;;29.60;19.60;;;9.30;84.90;;;;;;5009548;28;20034;-41
2022/03/16 09:34:07;;;;;;;30.52;20.20;;;9.40;85.20;;;;;;5008955;28;20049;-42
2022/03/16 09:36:37;;;;;;;26.92;20.17;;;9.50;85.20;;;;;;4992263;28;20030;-43
2022/03/16 09:39:08;;;;;;;22.67;18.17;;;9.80;84.50;;;;;;5005132;28;20034;-44
2022/03/16 09:41:36;;;;;;;28.42;19.42;;;10.20;84.60;;;;;;5008507;28;20045;-41
2022/03/16 09:44:06;;;;;;;31.90;19.90;;;10.50;82.80;;;;;;5007230;28;20371;-41
2022/03/16 09:46:36;;;;;;;28.00;19.23;;;10.90;82.30;;;;;;5008734;28;20113;-42
2022/03/16 09:49:07;;;;;;;30.85;22.40;;;11.40;82.40;;;;;;5009260;28;20367;-43
2022/03/16 09:51:45;;;;;;;26.70;21.95;;;11.90;79.60;;;;;;5009791;28;20034;-42
2022/03/16 09:54:11;;;;;;;27.80;20.70;;;11.80;77.00;;;;;;5009963;28;20034;-41
2022/03/16 09:56:36;;;;;;;29.85;20.23;;;11.70;76.80;;;;;;5011825;28;20029;-41
2022/03/16 09:59:04;;;;;;;28.33;20.27;;;11.70;75.90;;;;;;5012371;28;20370;-42
2022/03/16 10:01:34;;;;;;;31.13;20.33;;;11.60;77.90;;;;;;5013252;28;20461;-44
2022/03/16 10:04:06;;;;;;;25.30;20.30;;;11.40;77.40;;;;;;5012554;28;20030;-42
2022/03/16 10:06:35;;;;;;;25.38;21.05;;;11.40;78.60;;;;;;5013216;28;20033;-41
2022/03/16 10:15:18;;;;;;;27.45;21.25;;;11.50;76.80;;;;;;5011120;28;20108;-42
2022/03/16 10:18:02;;;;;;;28.08;21.33;;;11.20;77.80;;;;;;4995481;28;20034;-44
2022/03/16 10:20:47;;;;;;;26.27;19.42;;;11.20;78.00;;;;;;5013519;28;20034;-42
2022/03/16 10:23:14;;;;;;;31.92;21.77;;;11.30;78.50;;;;;;5012299;28;20030;-41
2022/03/16 10:25:51;;;;;;;26.00;20.75;;;11.40;77.60;;;;;;5008781;28;20096;-41
2022/03/16 10:28:23;;;;;;;31.55;21.45;;;11.60;78.00;;;;;;5011998;28;20415;-43
2022/03/16 10:31:08;;;;;;;26.67;22.42;;;11.70;76.60;;;;;;5011829;28;20040;-41
2022/03/16 10:33:56;;;;;;;28.73;20.98;;;12.00;77.30;;;;;;5011708;28;20032;-41
2022/03/16 10:36:26;;;;;;;28.13;21.13;;;12.50;76.40;;;;;;5012406;28;20044;-42
2022/03/16 10:38:58;;;;;;;25.90;21.85;;;12.80;74.40;;;;;;4995549;28;20054;-43
2022/03/16 10:47:20;;;;;;;28.25;21.58;;;13.10;73.70;;;;;;5012208;28;20135;-43
2022/03/16 10:50:00;;;;;;;29.75;21.55;;;13.20;72.10;;;;;;4995307;28;20041;-41
2022/03/16 10:52:32;;;;;;;29.23;20.77;;;13.30;72.70;;;;;;5011597;28;20026;-41
2022/03/16 10:55:04;;;;;;;31.00;23.88;;;13.20;71.90;;;;;;5012055;28;20100;-43
2022/03/16 10:57:38;;;;;;;28.20;22.60;;;13.20;71.40;;;;;;5011137;28;20045;-41
2022/03/16 11:00:07;;;;;;;31.02;22.42;;;13.20;72.30;;;;;;5011446;28;20051;-42
2022/03/16 11:02:34;;;;;;;30.08;22.13;;;13.10;72.50;;;;;;5012142;28;20029;-43
2022/03/16 11:05:03;;;;;;;30.65;22.80;;;12.90;73.00;;;;;;5010972;28;20399;-45
2022/03/16 11:07:34;;;;;;;31.05;21.77;;;12.60;72.40;;;;;;5011029;28;20343;-45
2022/03/16 11:10:00;;;;;;;28.98;21.42;;;12.40;73.30;;;;;;5010733;28;20042;-42
2022/03/16 11:15:12;;;;;;;29.88;21.08;;;12.30;74.40;;;;;;5011484;28;20172;-43
2022/03/16 11:17:40;;;;;;;30.67;21.55;;;12.20;73.80;;;;;;5010947;28;20042;-42
2022/03/16 11:20:10;;;;;;;29.30;20.60;;;12.40;74.30;;;;;;5011072;28;20101;-41
2022/03/16 11:26:24;;;;;;;30.13;18.98;;;13.20;72.20;;;;;;5010767;28;20095;-42
2022/03/16 11:29:22;;;;;;;29.67;20.48;;;13.10;71.30;;;;;;5011653;28;20215;-42
2022/03/16 11:31:48;;;;;;;29.60;18.35;;;13.40;71.70;;;;;;5011241;28;20450;-45
2022/03/16 11:34:22;;;;;;;29.23;19.70;;;13.60;71.00;;;;;;5010960;28;20097;-44
2022/03/16 11:37:11;;;;;;;26.98;20.20;;;13.70;69.00;;;;;;5010342;28;20030;-41
2022/03/16 11:39:47;;;;;;;25.75;19.75;;;13.60;69.50;;;;;;5011189;28;20034;-42
2022/03/16 11:42:18;;;;;;;23.38;18.88;;;13.80;71.20;;;;;;5010646;28;20049;-45
2022/03/16 11:44:46;;;;;;;25.63;19.38;;;13.80;69.70;;;;;;5010968;28;20042;-43
2022/03/16 11:47:23;;;;;;;24.05;18.83;;;13.70;69.50;;;;;;5010943;28;20061;-43
2022/03/16 11:50:20;;;;;;;26.58;20.13;;;13.70;69.70;;;;;;5011369;28;20321;-47
2022/03/16 11:53:13;;;;;;;24.65;19.70;;;13.50;69.10;;;;;;5010161;28;20461;-42
2022/03/16 11:55:50;;;;;;;25.35;19.10;;;13.30;69.50;;;;;;5010503;28;20044;-42
2022/03/16 11:58:28;;;;;;;26.95;19.20;;;13.40;70.50;;;;;;5010806;28;20049;-43
2022/03/16 12:01:28;;;;;;;26.70;20.23;;;13.40;70.70;;;;;;4994269;28;20037;-42
2022/03/16 12:04:22;;;;;;;26.75;19.02;;;13.60;70.60;;;;;;5011182;28;20339;-44
2022/03/16 12:07:22;;;;;;;24.45;18.67;;;13.60;68.90;;;;;;5010320;28;20034;-42
2022/03/16 12:10:10;;;;;;;23.38;18.77;;;13.30;68.80;;;;;;5010543;28;20044;-43
2022/03/16 12:12:51;;;;;;;28.17;18.65;;;13.10;68.40;;;;;;5011132;28;20026;-43
2022/03/16 12:15:41;;;;;;;26.23;18.55;;;13.20;70.10;;;;;;5010826;28;20026;-43
2022/03/16 12:18:37;;;;;;;28.30;17.30;;;13.40;70.40;;;;;;5010935;28;20022;-45
2022/03/16 12:21:10;;;;;;;25.50;19.52;;;13.50;68.80;;;;;;5010071;28;20036;-43
2022/03/16 12:23:58;;;;;;;26.33;18.15;;;13.40;67.80;;;;;;5010773;28;20135;-42
2022/03/16 12:28:55;;;;;;;30.20;19.65;;;13.20;68.00;;;;;;5010440;28;20044;-45
2022/03/16 12:29:24;;;;;;;28.52;18.95;;;13.10;68.10;;;;;;5010346;28;20045;-43
2022/03/16 12:31:55;;;;;;;26.08;19.02;;;12.90;69.40;;;;;;5009318;28;20117;-41
2022/03/16 12:34:24;;;;;;;24.27;18.55;;;13.00;68.40;;;;;;5009030;28;20038;-41
2022/03/16 12:36:51;;;;;;;24.20;19.17;;;12.90;68.10;;;;;;5010447;28;20382;-42
2022/03/16 12:39:18;;;;;;;26.70;17.73;;;12.90;68.90;;;;;;5000829;28;20081;-42
2022/03/16 12:44:43;;;;;;;35.00;16.20;;;12.80;69.30;;;;;;5009755;28;20044;-42
2022/03/16 12:47:42;;;;;;;26.17;18.38;;;12.90;69.20;;;;;;5009581;28;20106;-43
2022/03/16 12:50:19;;;;;;;26.30;18.40;;;12.80;68.90;;;;;;5009529;28;20073;-45
2022/03/16 12:52:53;;;;;;;22.65;16.08;;;12.70;69.50;;;;;;5009788;28;20022;-42
2022/03/16 12:55:29;;;;;;;23.33;15.45;;;12.80;69.90;;;;;;5009899;28;20032;-43
2022/03/16 12:58:06;;;;;;;28.42;16.48;;;12.90;69.90;;;;;;5010395;28;20041;-42
2022/03/16 13:00:38;;;;;;;25.02;16.98;;;13.00;68.80;;;;;;5009831;28;20030;-41
2022/03/16 13:03:18;;;;;;;24.33;16.13;;;12.90;67.70;;;;;;5008836;28;20160;-42
2022/03/16 13:05:44;;;;;;;24.67;18.20;;;12.90;68.70;;;;;;5009481;28;20088;-43
2022/03/16 13:08:10;;;;;;;23.83;15.82;;;12.90;67.60;;;;;;5008500;28;20069;-41
2022/03/16 13:11:14;;;;;;;24.77;17.58;;;12.90;67.60;;;;;;5008487;28;20216;-42